sensor_id;sensor_type;location;lat;lon;timestamp;P1;durP1;ratioP1;P2;durP2;ratioP2
35128;SDS011;21301;43.626;10.580;2023-02-11T00:01:33;32.92;;;17.08;;
35128;SDS011;21301;43.626;10.580;2023-02-11T00:04:00;33.92;;;17.50;;
35128;SDS011;21301;43.626;10.580;2023-02-11T00:06:28;32.72;;;18.92;;
35128;SDS011;21301;43.626;10.580;2023-02-11T00:08:56;35.80;;;20.60;;
35128;SDS011;21301;43.626;10.580;2023-02-11T00:11:22;34.10;;;19.45;;
35128;SDS011;21301;43.626;10.580;2023-02-11T00:13:56;31.75;;;19.67;;
35128;SDS011;21301;43.626;10.580;2023-02-11T00:16:23;34.97;;;21.23;;
35128;SDS011;21301;43.626;10.580;2023-02-11T00:18:49;36.47;;;21.33;;
35128;SDS011;21301;43.626;10.580;2023-02-11T00:21:18;33.38;;;18.30;;
35128;SDS011;21301;43.626;10.580;2023-02-11T00:23:46;28.17;;;18.23;;
35128;SDS011;21301;43.626;10.580;2023-02-11T00:26:13;36.88;;;16.80;;
35128;SDS011;21301;43.626;10.580;2023-02-11T00:28:45;36.28;;;19.45;;
35128;SDS011;21301;43.626;10.580;2023-02-11T00:31:12;37.65;;;18.55;;
35128;SDS011;21301;43.626;10.580;2023-02-11T00:33:39;27.98;;;15.82;;
35128;SDS011;21301;43.626;10.580;2023-02-11T00:36:11;30.52;;;15.73;;
35128;SDS011;21301;43.626;10.580;2023-02-11T00:38:45;26.80;;;14.38;;
35128;SDS011;21301;43.626;10.580;2023-02-11T00:41:13;24.42;;;14.30;;
35128;SDS011;21301;43.626;10.580;2023-02-11T00:43:39;21.75;;;12.75;;
35128;SDS011;21301;43.626;10.580;2023-02-11T00:46:06;20.00;;;12.35;;
35128;SDS011;21301;43.626;10.580;2023-02-11T00:48:32;21.98;;;12.75;;
35128;SDS011;21301;43.626;10.580;2023-02-11T00:50:59;22.23;;;13.55;;
35128;SDS011;21301;43.626;10.580;2023-02-11T00:53:25;21.17;;;12.38;;
35128;SDS011;21301;43.626;10.580;2023-02-11T00:55:51;22.40;;;11.35;;
35128;SDS011;21301;43.626;10.580;2023-02-11T00:58:17;21.83;;;11.30;;
35128;SDS011;21301;43.626;10.580;2023-02-11T01:00:43;16.73;;;9.63;;
35128;SDS011;21301;43.626;10.580;2023-02-11T01:03:11;21.80;;;11.90;;
35128;SDS011;21301;43.626;10.580;2023-02-11T01:05:37;17.80;;;9.50;;
35128;SDS011;21301;43.626;10.580;2023-02-11T01:08:03;20.10;;;10.02;;
35128;SDS011;21301;43.626;10.580;2023-02-11T01:10:29;18.10;;;10.20;;
35128;SDS011;21301;43.626;10.580;2023-02-11T01:12:55;20.95;;;10.38;;
35128;SDS011;21301;43.626;10.580;2023-02-11T01:15:23;19.02;;;11.02;;
35128;SDS011;21301;43.626;10.580;2023-02-11T01:17:49;20.52;;;9.57;;
35128;SDS011;21301;43.626;10.580;2023-02-11T01:20:19;17.30;;;9.85;;
35128;SDS011;21301;43.626;10.580;2023-02-11T01:22:48;19.13;;;10.07;;
35128;SDS011;21301;43.626;10.580;2023-02-11T01:25:14;18.45;;;10.05;;
35128;SDS011;21301;43.626;10.580;2023-02-11T01:27:41;19.98;;;10.80;;
35128;SDS011;21301;43.626;10.580;2023-02-11T01:30:08;20.30;;;10.88;;
35128;SDS011;21301;43.626;10.580;2023-02-11T01:32:37;19.40;;;10.00;;
35128;SDS011;21301;43.626;10.580;2023-02-11T01:35:04;24.80;;;12.68;;
35128;SDS011;21301;43.626;10.580;2023-02-11T01:37:32;22.85;;;12.82;;
35128;SDS011;21301;43.626;10.580;2023-02-11T01:40:00;33.92;;;15.43;;
35128;SDS011;21301;43.626;10.580;2023-02-11T01:42:26;22.48;;;12.30;;
35128;SDS011;21301;43.626;10.580;2023-02-11T01:44:53;24.15;;;11.85;;
35128;SDS011;21301;43.626;10.580;2023-02-11T01:47:20;21.70;;;9.95;;
35128;SDS011;21301;43.626;10.580;2023-02-11T01:49:48;20.85;;;10.57;;
35128;SDS011;21301;43.626;10.580;2023-02-11T01:52:24;21.73;;;9.80;;
35128;SDS011;21301;43.626;10.580;2023-02-11T01:55:14;15.93;;;9.27;;
35128;SDS011;21301;43.626;10.580;2023-02-11T01:57:59;18.30;;;9.65;;
35128;SDS011;21301;43.626;10.580;2023-02-11T02:00:33;21.15;;;10.95;;
35128;SDS011;21301;43.626;10.580;2023-02-11T02:03:02;16.83;;;8.90;;
35128;SDS011;21301;43.626;10.580;2023-02-11T02:05:52;18.55;;;8.90;;
35128;SDS011;21301;43.626;10.580;2023-02-11T02:11:06;17.77;;;8.48;;
35128;SDS011;21301;43.626;10.580;2023-02-11T02:13:35;21.70;;;10.43;;
35128;SDS011;21301;43.626;10.580;2023-02-11T02:16:06;18.33;;;9.40;;
35128;SDS011;21301;43.626;10.580;2023-02-11T02:21:52;20.50;;;9.15;;
35128;SDS011;21301;43.626;10.580;2023-02-11T02:30:45;18.05;;;7.00;;
35128;SDS011;21301;43.626;10.580;2023-02-11T02:33:36;16.33;;;7.95;;
35128;SDS011;21301;43.626;10.580;2023-02-11T02:41:29;12.85;;;7.22;;
35128;SDS011;21301;43.626;10.580;2023-02-11T02:43:56;19.08;;;8.63;;
35128;SDS011;21301;43.626;10.580;2023-02-11T02:46:24;17.67;;;8.50;;
35128;SDS011;21301;43.626;10.580;2023-02-11T02:48:52;15.27;;;8.18;;
35128;SDS011;21301;43.626;10.580;2023-02-11T02:56:32;17.10;;;8.32;;
35128;SDS011;21301;43.626;10.580;2023-02-11T03:02:17;19.17;;;8.25;;
35128;SDS011;21301;43.626;10.580;2023-02-11T03:04:59;18.52;;;8.70;;
35128;SDS011;21301;43.626;10.580;2023-02-11T03:07:41;23.60;;;9.55;;
35128;SDS011;21301;43.626;10.580;2023-02-11T03:10:37;17.85;;;8.43;;
35128;SDS011;21301;43.626;10.580;2023-02-11T03:13:09;20.55;;;10.60;;
35128;SDS011;21301;43.626;10.580;2023-02-11T03:15:38;18.70;;;9.57;;
35128;SDS011;21301;43.626;10.580;2023-02-11T03:18:08;14.68;;;8.13;;
35128;SDS011;21301;43.626;10.580;2023-02-11T03:20:39;21.58;;;10.95;;
35128;SDS011;21301;43.626;10.580;2023-02-11T03:23:13;24.20;;;11.55;;
35128;SDS011;21301;43.626;10.580;2023-02-11T03:25:54;15.75;;;8.65;;
35128;SDS011;21301;43.626;10.580;2023-02-11T03:31:21;16.25;;;7.88;;
35128;SDS011;21301;43.626;10.580;2023-02-11T03:34:16;18.40;;;10.18;;
35128;SDS011;21301;43.626;10.580;2023-02-11T03:36:56;19.48;;;8.90;;
35128;SDS011;21301;43.626;10.580;2023-02-11T03:39:28;11.65;;;6.47;;
35128;SDS011;21301;43.626;10.580;2023-02-11T03:42:08;21.33;;;8.30;;
35128;SDS011;21301;43.626;10.580;2023-02-11T03:44:39;15.27;;;7.55;;
35128;SDS011;21301;43.626;10.580;2023-02-11T03:47:08;16.05;;;6.85;;
35128;SDS011;21301;43.626;10.580;2023-02-11T03:49:36;18.63;;;8.77;;
35128;SDS011;21301;43.626;10.580;2023-02-11T03:52:04;19.00;;;8.65;;
35128;SDS011;21301;43.626;10.580;2023-02-11T03:54:32;17.92;;;7.70;;
35128;SDS011;21301;43.626;10.580;2023-02-11T03:56:59;17.88;;;8.43;;
35128;SDS011;21301;43.626;10.580;2023-02-11T03:59:26;14.70;;;8.10;;
35128;SDS011;21301;43.626;10.580;2023-02-11T04:05:18;20.95;;;9.35;;
35128;SDS011;21301;43.626;10.580;2023-02-11T04:07:44;16.02;;;7.97;;
35128;SDS011;21301;43.626;10.580;2023-02-11T04:10:11;15.98;;;6.68;;
35128;SDS011;21301;43.626;10.580;2023-02-11T04:12:37;13.38;;;6.85;;
35128;SDS011;21301;43.626;10.580;2023-02-11T04:15:03;16.42;;;7.70;;
35128;SDS011;21301;43.626;10.580;2023-02-11T04:17:29;15.85;;;7.65;;
35128;SDS011;21301;43.626;10.580;2023-02-11T04:19:55;18.05;;;8.68;;
35128;SDS011;21301;43.626;10.580;2023-02-11T04:22:20;23.60;;;9.52;;
35128;SDS011;21301;43.626;10.580;2023-02-11T04:24:47;20.63;;;10.43;;
35128;SDS011;21301;43.626;10.580;2023-02-11T04:27:12;17.75;;;8.13;;
35128;SDS011;21301;43.626;10.580;2023-02-11T04:29:38;13.23;;;5.97;;
35128;SDS011;21301;43.626;10.580;2023-02-11T04:32:04;16.23;;;6.80;;
35128;SDS011;21301;43.626;10.580;2023-02-11T04:34:30;17.38;;;8.18;;
35128;SDS011;21301;43.626;10.580;2023-02-11T04:36:56;16.85;;;7.10;;
35128;SDS011;21301;43.626;10.580;2023-02-11T04:39:22;20.73;;;8.82;;
35128;SDS011;21301;43.626;10.580;2023-02-11T04:41:48;14.50;;;6.85;;
35128;SDS011;21301;43.626;10.580;2023-02-11T04:44:13;17.58;;;6.40;;
35128;SDS011;21301;43.626;10.580;2023-02-11T04:46:39;13.50;;;6.82;;
35128;SDS011;21301;43.626;10.580;2023-02-11T04:49:05;17.52;;;7.00;;
35128;SDS011;21301;43.626;10.580;2023-02-11T04:51:31;14.13;;;5.32;;
35128;SDS011;21301;43.626;10.580;2023-02-11T04:53:57;19.58;;;8.88;;
35128;SDS011;21301;43.626;10.580;2023-02-11T04:56:26;19.13;;;8.88;;
35128;SDS011;21301;43.626;10.580;2023-02-11T04:58:52;15.55;;;7.25;;
35128;SDS011;21301;43.626;10.580;2023-02-11T05:01:18;21.05;;;9.70;;
35128;SDS011;21301;43.626;10.580;2023-02-11T05:03:44;18.70;;;7.97;;
35128;SDS011;21301;43.626;10.580;2023-02-11T05:06:10;16.48;;;7.00;;
35128;SDS011;21301;43.626;10.580;2023-02-11T05:08:36;15.70;;;7.80;;
35128;SDS011;21301;43.626;10.580;2023-02-11T05:11:02;12.20;;;6.40;;
35128;SDS011;21301;43.626;10.580;2023-02-11T05:13:28;14.38;;;6.32;;
35128;SDS011;21301;43.626;10.580;2023-02-11T05:15:54;17.38;;;9.23;;
35128;SDS011;21301;43.626;10.580;2023-02-11T05:18:20;14.77;;;7.78;;
35128;SDS011;21301;43.626;10.580;2023-02-11T05:20:46;15.00;;;8.50;;
35128;SDS011;21301;43.626;10.580;2023-02-11T05:23:12;12.00;;;6.25;;
35128;SDS011;21301;43.626;10.580;2023-02-11T05:25:37;14.57;;;6.63;;
35128;SDS011;21301;43.626;10.580;2023-02-11T05:28:03;16.75;;;8.05;;
35128;SDS011;21301;43.626;10.580;2023-02-11T05:30:30;11.60;;;6.35;;
35128;SDS011;21301;43.626;10.580;2023-02-11T05:32:56;11.70;;;5.78;;
35128;SDS011;21301;43.626;10.580;2023-02-11T05:35:22;12.60;;;6.32;;
35128;SDS011;21301;43.626;10.580;2023-02-11T05:37:48;12.25;;;6.78;;
35128;SDS011;21301;43.626;10.580;2023-02-11T05:40:14;13.50;;;7.45;;
35128;SDS011;21301;43.626;10.580;2023-02-11T05:42:40;10.10;;;5.18;;
35128;SDS011;21301;43.626;10.580;2023-02-11T05:45:06;15.13;;;7.95;;
35128;SDS011;21301;43.626;10.580;2023-02-11T05:47:32;17.25;;;6.32;;
35128;SDS011;21301;43.626;10.580;2023-02-11T05:49:58;12.68;;;5.90;;
35128;SDS011;21301;43.626;10.580;2023-02-11T05:52:23;16.08;;;6.80;;
35128;SDS011;21301;43.626;10.580;2023-02-11T05:54:49;15.95;;;6.93;;
35128;SDS011;21301;43.626;10.580;2023-02-11T05:57:15;15.90;;;5.80;;
35128;SDS011;21301;43.626;10.580;2023-02-11T05:59:42;16.58;;;6.47;;
35128;SDS011;21301;43.626;10.580;2023-02-11T06:02:07;14.77;;;7.15;;
35128;SDS011;21301;43.626;10.580;2023-02-11T06:04:34;15.95;;;8.45;;
35128;SDS011;21301;43.626;10.580;2023-02-11T06:07:01;15.45;;;7.38;;
35128;SDS011;21301;43.626;10.580;2023-02-11T06:09:26;13.02;;;5.00;;
35128;SDS011;21301;43.626;10.580;2023-02-11T06:11:52;12.25;;;5.97;;
35128;SDS011;21301;43.626;10.580;2023-02-11T06:14:18;23.13;;;11.40;;
35128;SDS011;21301;43.626;10.580;2023-02-11T06:16:44;21.42;;;9.95;;
35128;SDS011;21301;43.626;10.580;2023-02-11T06:19:11;25.00;;;10.23;;
35128;SDS011;21301;43.626;10.580;2023-02-11T06:21:37;17.10;;;9.18;;
35128;SDS011;21301;43.626;10.580;2023-02-11T06:24:04;20.00;;;8.02;;
35128;SDS011;21301;43.626;10.580;2023-02-11T06:26:31;20.35;;;7.63;;
35128;SDS011;21301;43.626;10.580;2023-02-11T06:28:59;15.07;;;7.13;;
35128;SDS011;21301;43.626;10.580;2023-02-11T06:31:25;18.02;;;7.22;;
35128;SDS011;21301;43.626;10.580;2023-02-11T06:33:52;16.35;;;7.55;;
35128;SDS011;21301;43.626;10.580;2023-02-11T06:36:20;15.80;;;8.45;;
35128;SDS011;21301;43.626;10.580;2023-02-11T06:38:47;13.45;;;7.50;;
35128;SDS011;21301;43.626;10.580;2023-02-11T06:41:14;18.00;;;8.55;;
35128;SDS011;21301;43.626;10.580;2023-02-11T06:43:42;24.42;;;9.57;;
35128;SDS011;21301;43.626;10.580;2023-02-11T06:46:08;18.60;;;8.82;;
35128;SDS011;21301;43.626;10.580;2023-02-11T06:48:34;15.52;;;6.05;;
35128;SDS011;21301;43.626;10.580;2023-02-11T06:51:01;20.15;;;7.28;;
35128;SDS011;21301;43.626;10.580;2023-02-11T06:53:33;15.77;;;7.40;;
35128;SDS011;21301;43.626;10.580;2023-02-11T06:56:04;13.57;;;6.93;;
35128;SDS011;21301;43.626;10.580;2023-02-11T06:58:32;14.52;;;7.10;;
35128;SDS011;21301;43.626;10.580;2023-02-11T07:00:58;23.75;;;11.20;;
35128;SDS011;21301;43.626;10.580;2023-02-11T07:03:24;16.42;;;8.43;;
35128;SDS011;21301;43.626;10.580;2023-02-11T07:05:50;17.75;;;8.38;;
35128;SDS011;21301;43.626;10.580;2023-02-11T07:08:16;15.43;;;7.03;;
35128;SDS011;21301;43.626;10.580;2023-02-11T07:10:42;17.88;;;10.00;;
35128;SDS011;21301;43.626;10.580;2023-02-11T07:13:08;18.02;;;8.68;;
35128;SDS011;21301;43.626;10.580;2023-02-11T07:15:35;14.13;;;8.35;;
35128;SDS011;21301;43.626;10.580;2023-02-11T07:18:02;19.83;;;9.93;;
35128;SDS011;21301;43.626;10.580;2023-02-11T07:20:28;19.05;;;10.52;;
35128;SDS011;21301;43.626;10.580;2023-02-11T07:22:54;15.43;;;8.38;;
35128;SDS011;21301;43.626;10.580;2023-02-11T07:25:19;16.17;;;8.43;;
35128;SDS011;21301;43.626;10.580;2023-02-11T07:27:45;16.35;;;9.13;;
35128;SDS011;21301;43.626;10.580;2023-02-11T07:30:11;17.40;;;8.77;;
35128;SDS011;21301;43.626;10.580;2023-02-11T07:32:37;11.95;;;7.07;;
35128;SDS011;21301;43.626;10.580;2023-02-11T07:35:03;15.57;;;7.93;;
35128;SDS011;21301;43.626;10.580;2023-02-11T07:37:31;16.80;;;8.68;;
35128;SDS011;21301;43.626;10.580;2023-02-11T07:39:58;15.48;;;8.75;;
35128;SDS011;21301;43.626;10.580;2023-02-11T07:42:24;17.70;;;9.85;;
35128;SDS011;21301;43.626;10.580;2023-02-11T07:44:56;16.13;;;9.15;;
35128;SDS011;21301;43.626;10.580;2023-02-11T07:47:22;15.48;;;8.88;;
35128;SDS011;21301;43.626;10.580;2023-02-11T07:49:48;14.32;;;8.50;;
35128;SDS011;21301;43.626;10.580;2023-02-11T07:52:13;15.65;;;8.60;;
35128;SDS011;21301;43.626;10.580;2023-02-11T07:54:39;16.95;;;10.27;;
35128;SDS011;21301;43.626;10.580;2023-02-11T07:57:05;24.70;;;9.60;;
35128;SDS011;21301;43.626;10.580;2023-02-11T07:59:31;13.90;;;8.60;;
35128;SDS011;21301;43.626;10.580;2023-02-11T08:01:57;15.68;;;8.32;;
35128;SDS011;21301;43.626;10.580;2023-02-11T08:04:23;14.48;;;8.02;;
35128;SDS011;21301;43.626;10.580;2023-02-11T08:06:48;15.07;;;7.57;;
35128;SDS011;21301;43.626;10.580;2023-02-11T08:09:16;16.67;;;8.88;;
35128;SDS011;21301;43.626;10.580;2023-02-11T08:11:43;15.80;;;10.10;;
35128;SDS011;21301;43.626;10.580;2023-02-11T08:14:09;16.23;;;8.98;;
35128;SDS011;21301;43.626;10.580;2023-02-11T08:16:36;16.02;;;8.02;;
35128;SDS011;21301;43.626;10.580;2023-02-11T08:19:12;15.15;;;9.52;;
35128;SDS011;21301;43.626;10.580;2023-02-11T08:21:39;14.73;;;8.57;;
35128;SDS011;21301;43.626;10.580;2023-02-11T08:24:06;18.92;;;9.95;;
35128;SDS011;21301;43.626;10.580;2023-02-11T08:26:32;18.73;;;12.38;;
35128;SDS011;21301;43.626;10.580;2023-02-11T08:28:59;16.02;;;10.18;;
35128;SDS011;21301;43.626;10.580;2023-02-11T08:31:37;22.15;;;14.10;;
35128;SDS011;21301;43.626;10.580;2023-02-11T08:34:05;24.92;;;14.30;;
35128;SDS011;21301;43.626;10.580;2023-02-11T08:36:32;23.55;;;14.20;;
35128;SDS011;21301;43.626;10.580;2023-02-11T08:39:01;23.30;;;13.77;;
35128;SDS011;21301;43.626;10.580;2023-02-11T08:41:32;20.13;;;12.98;;
35128;SDS011;21301;43.626;10.580;2023-02-11T08:43:59;20.27;;;12.60;;
35128;SDS011;21301;43.626;10.580;2023-02-11T08:46:25;21.13;;;12.55;;
35128;SDS011;21301;43.626;10.580;2023-02-11T08:48:51;22.88;;;13.32;;
35128;SDS011;21301;43.626;10.580;2023-02-11T08:51:19;18.08;;;10.85;;
35128;SDS011;21301;43.626;10.580;2023-02-11T08:53:47;20.25;;;10.77;;
35128;SDS011;21301;43.626;10.580;2023-02-11T08:56:14;26.23;;;13.65;;
35128;SDS011;21301;43.626;10.580;2023-02-11T08:58:41;18.85;;;11.55;;
35128;SDS011;21301;43.626;10.580;2023-02-11T09:01:08;19.05;;;12.65;;
35128;SDS011;21301;43.626;10.580;2023-02-11T09:03:38;23.23;;;12.45;;
35128;SDS011;21301;43.626;10.580;2023-02-11T09:06:07;23.80;;;11.90;;
35128;SDS011;21301;43.626;10.580;2023-02-11T09:08:35;20.65;;;11.73;;
35128;SDS011;21301;43.626;10.580;2023-02-11T09:11:02;20.52;;;11.70;;
35128;SDS011;21301;43.626;10.580;2023-02-11T09:13:29;22.95;;;10.48;;
35128;SDS011;21301;43.626;10.580;2023-02-11T09:15:56;23.80;;;14.30;;
35128;SDS011;21301;43.626;10.580;2023-02-11T09:18:23;28.10;;;11.98;;
35128;SDS011;21301;43.626;10.580;2023-02-11T09:20:49;22.17;;;12.60;;
35128;SDS011;21301;43.626;10.580;2023-02-11T09:23:14;21.60;;;12.02;;
35128;SDS011;21301;43.626;10.580;2023-02-11T09:25:40;20.88;;;12.98;;
35128;SDS011;21301;43.626;10.580;2023-02-11T09:28:07;17.80;;;11.77;;
35128;SDS011;21301;43.626;10.580;2023-02-11T09:30:33;17.05;;;11.48;;
35128;SDS011;21301;43.626;10.580;2023-02-11T09:33:00;19.10;;;11.60;;
35128;SDS011;21301;43.626;10.580;2023-02-11T09:35:26;19.80;;;11.65;;
35128;SDS011;21301;43.626;10.580;2023-02-11T09:37:52;19.38;;;11.77;;
35128;SDS011;21301;43.626;10.580;2023-02-11T09:40:18;18.67;;;11.27;;
35128;SDS011;21301;43.626;10.580;2023-02-11T09:43:04;22.35;;;12.88;;
35128;SDS011;21301;43.626;10.580;2023-02-11T09:45:35;19.65;;;12.00;;
35128;SDS011;21301;43.626;10.580;2023-02-11T09:48:16;17.15;;;11.48;;
35128;SDS011;21301;43.626;10.580;2023-02-11T09:50:53;25.15;;;14.00;;
35128;SDS011;21301;43.626;10.580;2023-02-11T09:53:28;23.80;;;12.98;;
35128;SDS011;21301;43.626;10.580;2023-02-11T09:56:00;22.50;;;13.13;;
35128;SDS011;21301;43.626;10.580;2023-02-11T09:58:33;21.92;;;12.45;;
35128;SDS011;21301;43.626;10.580;2023-02-11T10:01:07;20.40;;;11.95;;
35128;SDS011;21301;43.626;10.580;2023-02-11T10:06:54;15.75;;;10.38;;
35128;SDS011;21301;43.626;10.580;2023-02-11T10:22:47;17.77;;;12.32;;
35128;SDS011;21301;43.626;10.580;2023-02-11T10:27:48;16.85;;;9.77;;
35128;SDS011;21301;43.626;10.580;2023-02-11T10:30:35;18.17;;;10.73;;
35128;SDS011;21301;43.626;10.580;2023-02-11T10:33:12;16.95;;;9.95;;
35128;SDS011;21301;43.626;10.580;2023-02-11T10:35:58;15.73;;;9.13;;
35128;SDS011;21301;43.626;10.580;2023-02-11T10:38:25;15.30;;;9.65;;
35128;SDS011;21301;43.626;10.580;2023-02-11T10:40:51;17.95;;;10.40;;
35128;SDS011;21301;43.626;10.580;2023-02-11T10:43:18;17.77;;;9.80;;
35128;SDS011;21301;43.626;10.580;2023-02-11T10:45:52;16.33;;;10.48;;
35128;SDS011;21301;43.626;10.580;2023-02-11T10:53:44;14.07;;;9.95;;
35128;SDS011;21301;43.626;10.580;2023-02-11T10:56:25;14.63;;;7.40;;
35128;SDS011;21301;43.626;10.580;2023-02-11T11:01:36;17.13;;;8.60;;
35128;SDS011;21301;43.626;10.580;2023-02-11T11:04:04;14.30;;;8.43;;
35128;SDS011;21301;43.626;10.580;2023-02-11T11:06:31;15.60;;;9.43;;
35128;SDS011;21301;43.626;10.580;2023-02-11T11:08:58;14.38;;;9.95;;
35128;SDS011;21301;43.626;10.580;2023-02-11T11:11:25;16.70;;;9.93;;
35128;SDS011;21301;43.626;10.580;2023-02-11T11:16:25;15.35;;;9.57;;
35128;SDS011;21301;43.626;10.580;2023-02-11T11:19:25;15.88;;;10.10;;
35128;SDS011;21301;43.626;10.580;2023-02-11T11:21:46;18.23;;;11.38;;
35128;SDS011;21301;43.626;10.580;2023-02-11T11:24:27;23.45;;;14.32;;
35128;SDS011;21301;43.626;10.580;2023-02-11T11:27:00;18.58;;;12.55;;
35128;SDS011;21301;43.626;10.580;2023-02-11T11:32:19;14.73;;;9.38;;
35128;SDS011;21301;43.626;10.580;2023-02-11T11:34:58;16.30;;;8.88;;
35128;SDS011;21301;43.626;10.580;2023-02-11T11:37:27;12.10;;;8.65;;
35128;SDS011;21301;43.626;10.580;2023-02-11T11:39:59;13.98;;;8.25;;
35128;SDS011;21301;43.626;10.580;2023-02-11T11:42:33;12.50;;;7.85;;
35128;SDS011;21301;43.626;10.580;2023-02-11T11:45:01;11.18;;;7.40;;
35128;SDS011;21301;43.626;10.580;2023-02-11T11:48:03;12.38;;;7.60;;
35128;SDS011;21301;43.626;10.580;2023-02-11T11:56:10;11.27;;;7.18;;
35128;SDS011;21301;43.626;10.580;2023-02-11T11:58:39;15.57;;;8.70;;
35128;SDS011;21301;43.626;10.580;2023-02-11T12:08:43;11.48;;;6.22;;
35128;SDS011;21301;43.626;10.580;2023-02-11T12:19:38;9.82;;;5.72;;
35128;SDS011;21301;43.626;10.580;2023-02-11T12:25:15;9.00;;;5.43;;
35128;SDS011;21301;43.626;10.580;2023-02-11T12:27:53;10.80;;;6.30;;
35128;SDS011;21301;43.626;10.580;2023-02-11T12:33:37;11.82;;;7.18;;
35128;SDS011;21301;43.626;10.580;2023-02-11T12:36:07;16.23;;;7.63;;
35128;SDS011;21301;43.626;10.580;2023-02-11T12:38:44;23.63;;;14.82;;
35128;SDS011;21301;43.626;10.580;2023-02-11T12:47:11;9.35;;;5.63;;
35128;SDS011;21301;43.626;10.580;2023-02-11T12:49:46;11.85;;;6.90;;
35128;SDS011;21301;43.626;10.580;2023-02-11T12:55:33;15.93;;;9.45;;
35128;SDS011;21301;43.626;10.580;2023-02-11T12:58:04;13.75;;;8.55;;
35128;SDS011;21301;43.626;10.580;2023-02-11T13:00:50;11.38;;;6.65;;
35128;SDS011;21301;43.626;10.580;2023-02-11T13:03:19;11.88;;;7.15;;
35128;SDS011;21301;43.626;10.580;2023-02-11T13:05:56;14.18;;;5.75;;
35128;SDS011;21301;43.626;10.580;2023-02-11T13:08:30;10.63;;;6.32;;
35128;SDS011;21301;43.626;10.580;2023-02-11T13:11:25;9.52;;;4.70;;
35128;SDS011;21301;43.626;10.580;2023-02-11T13:13:59;9.15;;;5.38;;
35128;SDS011;21301;43.626;10.580;2023-02-11T13:35:26;13.65;;;7.63;;
35128;SDS011;21301;43.626;10.580;2023-02-11T13:38:03;11.00;;;6.78;;
35128;SDS011;21301;43.626;10.580;2023-02-11T13:40:32;10.68;;;5.68;;
35128;SDS011;21301;43.626;10.580;2023-02-11T13:43:01;10.93;;;6.15;;
35128;SDS011;21301;43.626;10.580;2023-02-11T13:48:22;9.23;;;5.77;;
35128;SDS011;21301;43.626;10.580;2023-02-11T13:51:07;11.13;;;5.95;;
35128;SDS011;21301;43.626;10.580;2023-02-11T13:53:55;9.88;;;5.47;;
35128;SDS011;21301;43.626;10.580;2023-02-11T13:56:33;10.20;;;5.97;;
35128;SDS011;21301;43.626;10.580;2023-02-11T13:59:02;8.48;;;5.32;;
35128;SDS011;21301;43.626;10.580;2023-02-11T14:01:37;9.27;;;5.68;;
35128;SDS011;21301;43.626;10.580;2023-02-11T14:04:22;9.80;;;5.97;;
35128;SDS011;21301;43.626;10.580;2023-02-11T14:13:22;10.40;;;4.68;;
35128;SDS011;21301;43.626;10.580;2023-02-11T14:15:48;8.93;;;5.07;;
35128;SDS011;21301;43.626;10.580;2023-02-11T14:18:39;12.07;;;6.43;;
35128;SDS011;21301;43.626;10.580;2023-02-11T14:29:01;8.77;;;4.85;;
35128;SDS011;21301;43.626;10.580;2023-02-11T14:39:52;8.35;;;4.82;;
35128;SDS011;21301;43.626;10.580;2023-02-11T14:42:19;7.78;;;3.97;;
35128;SDS011;21301;43.626;10.580;2023-02-11T14:44:51;9.27;;;5.82;;
35128;SDS011;21301;43.626;10.580;2023-02-11T14:47:24;10.40;;;5.80;;
35128;SDS011;21301;43.626;10.580;2023-02-11T14:49:54;10.48;;;6.47;;
35128;SDS011;21301;43.626;10.580;2023-02-11T14:52:30;9.43;;;6.25;;
35128;SDS011;21301;43.626;10.580;2023-02-11T14:58:18;10.30;;;5.80;;
35128;SDS011;21301;43.626;10.580;2023-02-11T15:00:46;9.90;;;5.07;;
35128;SDS011;21301;43.626;10.580;2023-02-11T15:03:29;10.13;;;5.80;;
35128;SDS011;21301;43.626;10.580;2023-02-11T15:05:59;10.30;;;5.65;;
35128;SDS011;21301;43.626;10.580;2023-02-11T15:08:27;8.68;;;4.53;;
35128;SDS011;21301;43.626;10.580;2023-02-11T15:10:55;13.20;;;5.57;;
35128;SDS011;21301;43.626;10.580;2023-02-11T15:13:22;10.80;;;5.40;;
35128;SDS011;21301;43.626;10.580;2023-02-11T15:15:54;8.43;;;5.15;;
35128;SDS011;21301;43.626;10.580;2023-02-11T15:18:24;10.65;;;5.20;;
35128;SDS011;21301;43.626;10.580;2023-02-11T15:20:56;8.93;;;4.75;;
35128;SDS011;21301;43.626;10.580;2023-02-11T15:23:23;8.00;;;4.90;;
35128;SDS011;21301;43.626;10.580;2023-02-11T15:25:50;8.73;;;5.05;;
35128;SDS011;21301;43.626;10.580;2023-02-11T15:28:21;7.30;;;4.25;;
35128;SDS011;21301;43.626;10.580;2023-02-11T15:30:56;7.53;;;4.15;;
35128;SDS011;21301;43.626;10.580;2023-02-11T15:33:30;7.50;;;3.85;;
35128;SDS011;21301;43.626;10.580;2023-02-11T15:35:58;6.20;;;3.35;;
35128;SDS011;21301;43.626;10.580;2023-02-11T15:38:25;8.27;;;4.53;;
35128;SDS011;21301;43.626;10.580;2023-02-11T15:40:56;7.25;;;3.85;;
35128;SDS011;21301;43.626;10.580;2023-02-11T15:46:09;6.70;;;3.55;;
35128;SDS011;21301;43.626;10.580;2023-02-11T15:48:49;9.27;;;4.28;;
35128;SDS011;21301;43.626;10.580;2023-02-11T15:51:21;7.22;;;4.25;;
35128;SDS011;21301;43.626;10.580;2023-02-11T15:53:59;9.43;;;4.70;;
35128;SDS011;21301;43.626;10.580;2023-02-11T15:56:38;8.30;;;4.90;;
35128;SDS011;21301;43.626;10.580;2023-02-11T16:02:12;10.07;;;5.65;;
35128;SDS011;21301;43.626;10.580;2023-02-11T16:07:55;9.90;;;5.05;;
35128;SDS011;21301;43.626;10.580;2023-02-11T16:10:35;17.25;;;10.98;;
35128;SDS011;21301;43.626;10.580;2023-02-11T16:21:11;10.70;;;4.95;;
35128;SDS011;21301;43.626;10.580;2023-02-11T16:23:40;10.38;;;5.47;;
35128;SDS011;21301;43.626;10.580;2023-02-11T16:28:48;13.93;;;6.57;;
35128;SDS011;21301;43.626;10.580;2023-02-11T16:31:14;11.23;;;6.28;;
35128;SDS011;21301;43.626;10.580;2023-02-11T16:33:40;11.77;;;6.35;;
35128;SDS011;21301;43.626;10.580;2023-02-11T16:36:12;16.88;;;6.32;;
35128;SDS011;21301;43.626;10.580;2023-02-11T16:38:41;10.73;;;6.10;;
35128;SDS011;21301;43.626;10.580;2023-02-11T16:41:07;11.90;;;6.60;;
35128;SDS011;21301;43.626;10.580;2023-02-11T16:43:36;12.63;;;7.20;;
35128;SDS011;21301;43.626;10.580;2023-02-11T16:46:01;11.43;;;6.50;;
35128;SDS011;21301;43.626;10.580;2023-02-11T16:48:28;15.15;;;7.30;;
35128;SDS011;21301;43.626;10.580;2023-02-11T16:50:55;12.18;;;7.25;;
35128;SDS011;21301;43.626;10.580;2023-02-11T16:53:21;12.00;;;6.63;;
35128;SDS011;21301;43.626;10.580;2023-02-11T16:55:49;10.43;;;6.85;;
35128;SDS011;21301;43.626;10.580;2023-02-11T16:58:16;14.27;;;8.25;;
35128;SDS011;21301;43.626;10.580;2023-02-11T17:00:42;53.88;;;11.98;;
35128;SDS011;21301;43.626;10.580;2023-02-11T17:03:13;52.35;;;11.57;;
35128;SDS011;21301;43.626;10.580;2023-02-11T17:05:50;45.60;;;9.27;;
35128;SDS011;21301;43.626;10.580;2023-02-11T17:08:17;18.98;;;8.40;;
35128;SDS011;21301;43.626;10.580;2023-02-11T17:10:43;15.38;;;8.18;;
35128;SDS011;21301;43.626;10.580;2023-02-11T17:13:09;15.63;;;8.80;;
35128;SDS011;21301;43.626;10.580;2023-02-11T17:15:35;15.20;;;7.43;;
35128;SDS011;21301;43.626;10.580;2023-02-11T17:18:01;11.65;;;6.65;;
35128;SDS011;21301;43.626;10.580;2023-02-11T17:20:27;11.60;;;7.55;;
35128;SDS011;21301;43.626;10.580;2023-02-11T17:22:53;15.38;;;8.18;;